Portada
METAR-TAF:

METAR-TAF

Aeroports :

Aeroport Internacional Reina Beatrix

Aruba, Aruba

latitud: 12-30N, longitud: 070-01W, altitud: 18 m

Observació

L'informe es va fer fa 21 minuts, a les 16:00 UTC
Vent 11 kt del Sud/Sud-Est, variant entre Est/Sud-Est i Sud
Temperatura 30°C
Humitat 75%
Pressió 1012 hPa
Visibilitat 10 km o més
Escasses núvols a una alçada de 2500 ft

METAR: TNCA 191600Z 15011KT 110V170 9999 FEW025 30/25 Q1012 NOSIG

Hora: 12:21 (16:21 UTC)

Pronòstic

L'informe es va fer fa 5 hores i 6 minuts, a les 11:15 UTC
Pronòstic vàlid del 19 a les 12 UTC al 20 a les 12 UTC
Vent 9 kt del Est/Sud-Est
Visibilitat 10 km o més
Escasses núvols a una alçada de 2000 ft

TAF: TNCA 191115Z 1912/2012 11009KT 9999 FEW020

Observacions i pronòstics meteorològics de més de 4000 aeroports (METAR i TAF).

Les estacions disponibles són els punts grocs i vermells al mapa.

Posi el ratolí al punt desitjat per veure el nom de l'estació.

Feu clic per veure les observacions i els pronòstics meteorològics.

Per canviar el mapa: feu clic els botons verds amb una creu de color negre per apropar; al botó verd amb un guió per allunyar la imatge; o en les fletxes verdes per a mapes adjacents.


METAR-TAF: